sensor_id;sensor_type;location;lat;lon;timestamp;P1;durP1;ratioP1;P2;durP2;ratioP2
49109;SDS011;34921;52.320;16.142;2023-02-23T00:01:51;28.70;;;14.60;;
49109;SDS011;34921;52.320;16.142;2023-02-23T00:04:19;28.57;;;14.93;;
49109;SDS011;34921;52.320;16.142;2023-02-23T00:09:21;39.35;;;17.10;;
49109;SDS011;34921;52.320;16.142;2023-02-23T00:11:50;42.15;;;17.48;;
49109;SDS011;34921;52.320;16.142;2023-02-23T00:14:19;29.20;;;15.35;;
49109;SDS011;34921;52.320;16.142;2023-02-23T00:16:51;25.80;;;13.23;;
49109;SDS011;34921;52.320;16.142;2023-02-23T00:19:19;27.75;;;14.33;;
49109;SDS011;34921;52.320;16.142;2023-02-23T00:21:47;27.60;;;14.47;;
49109;SDS011;34921;52.320;16.142;2023-02-23T00:24:14;24.73;;;13.90;;
49109;SDS011;34921;52.320;16.142;2023-02-23T00:26:46;25.08;;;13.60;;
49109;SDS011;34921;52.320;16.142;2023-02-23T00:29:16;26.60;;;13.40;;
49109;SDS011;34921;52.320;16.142;2023-02-23T00:31:45;24.27;;;14.23;;
49109;SDS011;34921;52.320;16.142;2023-02-23T00:34:14;23.98;;;13.05;;
49109;SDS011;34921;52.320;16.142;2023-02-23T00:36:51;24.70;;;13.23;;
49109;SDS011;34921;52.320;16.142;2023-02-23T00:39:23;27.80;;;14.53;;
49109;SDS011;34921;52.320;16.142;2023-02-23T00:41:55;29.25;;;14.80;;
49109;SDS011;34921;52.320;16.142;2023-02-23T00:44:28;24.00;;;13.18;;
49109;SDS011;34921;52.320;16.142;2023-02-23T00:46:58;29.57;;;15.00;;
49109;SDS011;34921;52.320;16.142;2023-02-23T00:49:29;27.22;;;15.48;;
49109;SDS011;34921;52.320;16.142;2023-02-23T00:51:57;26.17;;;14.93;;
49109;SDS011;34921;52.320;16.142;2023-02-23T00:54:25;29.02;;;15.20;;
49109;SDS011;34921;52.320;16.142;2023-02-23T00:56:53;23.90;;;13.83;;
49109;SDS011;34921;52.320;16.142;2023-02-23T00:59:21;24.82;;;15.00;;
49109;SDS011;34921;52.320;16.142;2023-02-23T01:01:49;28.55;;;15.28;;
49109;SDS011;34921;52.320;16.142;2023-02-23T01:04:17;25.93;;;14.03;;
49109;SDS011;34921;52.320;16.142;2023-02-23T01:06:45;24.05;;;13.35;;
49109;SDS011;34921;52.320;16.142;2023-02-23T01:09:14;25.97;;;14.28;;
49109;SDS011;34921;52.320;16.142;2023-02-23T01:11:54;28.75;;;14.25;;
49109;SDS011;34921;52.320;16.142;2023-02-23T01:14:23;27.07;;;14.43;;
49109;SDS011;34921;52.320;16.142;2023-02-23T01:16:51;29.20;;;14.93;;
49109;SDS011;34921;52.320;16.142;2023-02-23T01:19:19;29.67;;;15.72;;
49109;SDS011;34921;52.320;16.142;2023-02-23T01:21:47;28.27;;;14.85;;
49109;SDS011;34921;52.320;16.142;2023-02-23T01:24:15;25.55;;;15.38;;
49109;SDS011;34921;52.320;16.142;2023-02-23T01:26:43;24.82;;;13.80;;
49109;SDS011;34921;52.320;16.142;2023-02-23T01:29:13;29.50;;;14.65;;
49109;SDS011;34921;52.320;16.142;2023-02-23T01:31:43;25.00;;;13.83;;
49109;SDS011;34921;52.320;16.142;2023-02-23T01:34:15;26.55;;;15.43;;
49109;SDS011;34921;52.320;16.142;2023-02-23T01:36:43;26.07;;;14.60;;
49109;SDS011;34921;52.320;16.142;2023-02-23T01:39:12;29.87;;;15.23;;
49109;SDS011;34921;52.320;16.142;2023-02-23T01:41:41;34.90;;;16.15;;
49109;SDS011;34921;52.320;16.142;2023-02-23T01:46:41;28.32;;;14.73;;
49109;SDS011;34921;52.320;16.142;2023-02-23T01:49:22;27.35;;;14.45;;
49109;SDS011;34921;52.320;16.142;2023-02-23T01:52:02;27.50;;;15.50;;
49109;SDS011;34921;52.320;16.142;2023-02-23T01:54:39;27.58;;;14.45;;
49109;SDS011;34921;52.320;16.142;2023-02-23T01:57:17;25.57;;;14.73;;
49109;SDS011;34921;52.320;16.142;2023-02-23T01:59:47;31.48;;;15.45;;
49109;SDS011;34921;52.320;16.142;2023-02-23T02:02:20;33.10;;;16.55;;
49109;SDS011;34921;52.320;16.142;2023-02-23T02:04:50;28.67;;;15.38;;
49109;SDS011;34921;52.320;16.142;2023-02-23T02:07:22;25.30;;;13.93;;
49109;SDS011;34921;52.320;16.142;2023-02-23T02:09:53;26.42;;;15.53;;
49109;SDS011;34921;52.320;16.142;2023-02-23T02:12:50;27.37;;;15.03;;
49109;SDS011;34921;52.320;16.142;2023-02-23T02:15:20;29.42;;;15.25;;
49109;SDS011;34921;52.320;16.142;2023-02-23T02:20:29;27.90;;;15.33;;
49109;SDS011;34921;52.320;16.142;2023-02-23T02:26:02;27.00;;;15.15;;
49109;SDS011;34921;52.320;16.142;2023-02-23T02:31:30;27.13;;;15.68;;
49109;SDS011;34921;52.320;16.142;2023-02-23T02:42:46;26.97;;;14.73;;
49109;SDS011;34921;52.320;16.142;2023-02-23T02:45:36;31.12;;;17.17;;
49109;SDS011;34921;52.320;16.142;2023-02-23T02:56:52;25.25;;;15.18;;
49109;SDS011;34921;52.320;16.142;2023-02-23T02:59:24;28.27;;;15.30;;
49109;SDS011;34921;52.320;16.142;2023-02-23T03:02:15;27.50;;;15.93;;
49109;SDS011;34921;52.320;16.142;2023-02-23T03:05:13;25.70;;;15.20;;
49109;SDS011;34921;52.320;16.142;2023-02-23T03:29:08;30.37;;;16.45;;
49109;SDS011;34921;52.320;16.142;2023-02-23T03:32:08;28.40;;;16.23;;
49109;SDS011;34921;52.320;16.142;2023-02-23T03:41:34;29.85;;;16.02;;
49109;SDS011;34921;52.320;16.142;2023-02-23T03:44:30;29.40;;;15.83;;
49109;SDS011;34921;52.320;16.142;2023-02-23T03:47:20;31.25;;;16.70;;
49109;SDS011;34921;52.320;16.142;2023-02-23T03:50:10;29.65;;;17.10;;
49109;SDS011;34921;52.320;16.142;2023-02-23T03:53:03;31.15;;;16.50;;
49109;SDS011;34921;52.320;16.142;2023-02-23T03:55:51;31.15;;;17.45;;
49109;SDS011;34921;52.320;16.142;2023-02-23T03:58:42;31.20;;;17.73;;
49109;SDS011;34921;52.320;16.142;2023-02-23T04:01:35;31.27;;;15.83;;
49109;SDS011;34921;52.320;16.142;2023-02-23T04:04:23;30.00;;;16.12;;
49109;SDS011;34921;52.320;16.142;2023-02-23T04:07:10;30.57;;;16.15;;
49109;SDS011;34921;52.320;16.142;2023-02-23T04:09:59;30.90;;;16.62;;
49109;SDS011;34921;52.320;16.142;2023-02-23T04:13:03;27.37;;;15.73;;
49109;SDS011;34921;52.320;16.142;2023-02-23T04:15:46;32.30;;;16.48;;
49109;SDS011;34921;52.320;16.142;2023-02-23T04:18:36;27.27;;;15.53;;
49109;SDS011;34921;52.320;16.142;2023-02-23T04:21:05;32.13;;;19.35;;
49109;SDS011;34921;52.320;16.142;2023-02-23T04:23:34;30.82;;;16.40;;
49109;SDS011;34921;52.320;16.142;2023-02-23T04:26:02;29.93;;;16.30;;
49109;SDS011;34921;52.320;16.142;2023-02-23T04:28:31;33.85;;;16.10;;
49109;SDS011;34921;52.320;16.142;2023-02-23T04:30:59;28.77;;;15.80;;
49109;SDS011;34921;52.320;16.142;2023-02-23T04:33:28;30.80;;;16.07;;
49109;SDS011;34921;52.320;16.142;2023-02-23T04:35:56;30.87;;;16.70;;
49109;SDS011;34921;52.320;16.142;2023-02-23T04:38:24;29.40;;;15.80;;
49109;SDS011;34921;52.320;16.142;2023-02-23T04:40:52;31.95;;;16.75;;
49109;SDS011;34921;52.320;16.142;2023-02-23T04:43:20;31.07;;;15.93;;
49109;SDS011;34921;52.320;16.142;2023-02-23T04:45:48;32.38;;;16.52;;
49109;SDS011;34921;52.320;16.142;2023-02-23T04:48:16;25.55;;;14.63;;
49109;SDS011;34921;52.320;16.142;2023-02-23T04:50:44;30.70;;;16.05;;
49109;SDS011;34921;52.320;16.142;2023-02-23T04:53:11;29.42;;;16.37;;
49109;SDS011;34921;52.320;16.142;2023-02-23T04:55:39;37.23;;;19.48;;
49109;SDS011;34921;52.320;16.142;2023-02-23T04:58:07;36.97;;;20.60;;
49109;SDS011;34921;52.320;16.142;2023-02-23T05:00:40;31.27;;;15.78;;
49109;SDS011;34921;52.320;16.142;2023-02-23T05:03:08;30.97;;;16.50;;
49109;SDS011;34921;52.320;16.142;2023-02-23T05:05:37;34.27;;;16.85;;
49109;SDS011;34921;52.320;16.142;2023-02-23T05:08:05;29.40;;;15.85;;
49109;SDS011;34921;52.320;16.142;2023-02-23T05:10:33;26.93;;;15.30;;
49109;SDS011;34921;52.320;16.142;2023-02-23T05:13:01;28.70;;;15.08;;
49109;SDS011;34921;52.320;16.142;2023-02-23T05:15:29;32.25;;;16.50;;
49109;SDS011;34921;52.320;16.142;2023-02-23T05:17:57;28.57;;;16.70;;
49109;SDS011;34921;52.320;16.142;2023-02-23T05:20:25;30.15;;;16.85;;
49109;SDS011;34921;52.320;16.142;2023-02-23T05:22:53;29.02;;;15.60;;
49109;SDS011;34921;52.320;16.142;2023-02-23T05:25:21;33.95;;;16.70;;
49109;SDS011;34921;52.320;16.142;2023-02-23T05:27:49;32.40;;;18.13;;
49109;SDS011;34921;52.320;16.142;2023-02-23T05:30:17;37.83;;;18.90;;
49109;SDS011;34921;52.320;16.142;2023-02-23T05:32:45;33.70;;;17.45;;
49109;SDS011;34921;52.320;16.142;2023-02-23T05:35:13;32.40;;;18.40;;
49109;SDS011;34921;52.320;16.142;2023-02-23T05:37:41;33.30;;;16.48;;
49109;SDS011;34921;52.320;16.142;2023-02-23T05:40:09;35.65;;;18.73;;
49109;SDS011;34921;52.320;16.142;2023-02-23T05:42:37;37.55;;;18.87;;
49109;SDS011;34921;52.320;16.142;2023-02-23T05:45:05;31.40;;;17.42;;
49109;SDS011;34921;52.320;16.142;2023-02-23T05:47:33;37.83;;;18.10;;
49109;SDS011;34921;52.320;16.142;2023-02-23T05:50:06;37.83;;;19.45;;
49109;SDS011;34921;52.320;16.142;2023-02-23T05:52:37;34.25;;;18.23;;
49109;SDS011;34921;52.320;16.142;2023-02-23T05:55:08;32.00;;;17.87;;
49109;SDS011;34921;52.320;16.142;2023-02-23T06:00:06;37.13;;;19.23;;
49109;SDS011;34921;52.320;16.142;2023-02-23T06:02:34;33.80;;;18.95;;
49109;SDS011;34921;52.320;16.142;2023-02-23T06:05:03;33.18;;;17.42;;
49109;SDS011;34921;52.320;16.142;2023-02-23T06:07:32;36.27;;;18.57;;
49109;SDS011;34921;52.320;16.142;2023-02-23T06:10:00;30.77;;;16.60;;
49109;SDS011;34921;52.320;16.142;2023-02-23T06:12:28;30.90;;;16.50;;
49109;SDS011;34921;52.320;16.142;2023-02-23T06:14:56;33.73;;;17.87;;
49109;SDS011;34921;52.320;16.142;2023-02-23T06:17:24;34.00;;;18.05;;
49109;SDS011;34921;52.320;16.142;2023-02-23T06:19:52;29.50;;;17.05;;
49109;SDS011;34921;52.320;16.142;2023-02-23T06:22:20;30.55;;;17.42;;
49109;SDS011;34921;52.320;16.142;2023-02-23T06:24:48;33.55;;;17.05;;
49109;SDS011;34921;52.320;16.142;2023-02-23T06:27:16;31.97;;;15.95;;
49109;SDS011;34921;52.320;16.142;2023-02-23T06:29:44;30.37;;;16.50;;
49109;SDS011;34921;52.320;16.142;2023-02-23T06:32:12;31.48;;;17.25;;
49109;SDS011;34921;52.320;16.142;2023-02-23T06:34:39;30.77;;;16.77;;
49109;SDS011;34921;52.320;16.142;2023-02-23T06:37:07;34.25;;;18.30;;
49109;SDS011;34921;52.320;16.142;2023-02-23T06:39:36;34.55;;;17.27;;
49109;SDS011;34921;52.320;16.142;2023-02-23T06:42:04;32.23;;;17.35;;
49109;SDS011;34921;52.320;16.142;2023-02-23T06:44:32;31.70;;;17.37;;
49109;SDS011;34921;52.320;16.142;2023-02-23T06:47:02;37.83;;;18.50;;
49109;SDS011;34921;52.320;16.142;2023-02-23T06:49:32;39.85;;;19.02;;
49109;SDS011;34921;52.320;16.142;2023-02-23T06:52:00;36.60;;;19.30;;
49109;SDS011;34921;52.320;16.142;2023-02-23T06:54:28;30.60;;;16.32;;
49109;SDS011;34921;52.320;16.142;2023-02-23T06:56:56;36.23;;;18.70;;
49109;SDS011;34921;52.320;16.142;2023-02-23T06:59:24;39.83;;;17.75;;
49109;SDS011;34921;52.320;16.142;2023-02-23T07:01:52;34.45;;;18.35;;
49109;SDS011;34921;52.320;16.142;2023-02-23T07:04:20;34.63;;;19.17;;
49109;SDS011;34921;52.320;16.142;2023-02-23T07:06:48;37.98;;;19.45;;
49109;SDS011;34921;52.320;16.142;2023-02-23T07:09:16;56.70;;;23.42;;
49109;SDS011;34921;52.320;16.142;2023-02-23T07:11:44;45.98;;;22.75;;
49109;SDS011;34921;52.320;16.142;2023-02-23T07:14:12;47.03;;;23.15;;
49109;SDS011;34921;52.320;16.142;2023-02-23T07:16:40;37.57;;;20.53;;
49109;SDS011;34921;52.320;16.142;2023-02-23T07:19:08;37.38;;;18.55;;
49109;SDS011;34921;52.320;16.142;2023-02-23T07:21:36;39.30;;;21.07;;
49109;SDS011;34921;52.320;16.142;2023-02-23T07:24:04;53.73;;;22.97;;
49109;SDS011;34921;52.320;16.142;2023-02-23T07:26:32;43.25;;;20.23;;
49109;SDS011;34921;52.320;16.142;2023-02-23T07:29:01;40.65;;;21.15;;
49109;SDS011;34921;52.320;16.142;2023-02-23T07:31:30;39.18;;;20.30;;
49109;SDS011;34921;52.320;16.142;2023-02-23T07:33:57;42.48;;;20.23;;
49109;SDS011;34921;52.320;16.142;2023-02-23T07:36:25;38.58;;;19.82;;
49109;SDS011;34921;52.320;16.142;2023-02-23T07:38:53;44.48;;;22.20;;
49109;SDS011;34921;52.320;16.142;2023-02-23T07:41:22;37.40;;;20.57;;
49109;SDS011;34921;52.320;16.142;2023-02-23T07:43:50;39.35;;;19.77;;
49109;SDS011;34921;52.320;16.142;2023-02-23T07:46:18;37.63;;;19.80;;
49109;SDS011;34921;52.320;16.142;2023-02-23T07:48:46;36.03;;;19.62;;
49109;SDS011;34921;52.320;16.142;2023-02-23T07:51:14;36.37;;;19.33;;
49109;SDS011;34921;52.320;16.142;2023-02-23T07:53:43;35.52;;;18.98;;
49109;SDS011;34921;52.320;16.142;2023-02-23T07:56:12;33.67;;;18.30;;
49109;SDS011;34921;52.320;16.142;2023-02-23T07:58:40;36.68;;;19.73;;
49109;SDS011;34921;52.320;16.142;2023-02-23T08:01:10;36.48;;;18.90;;
49109;SDS011;34921;52.320;16.142;2023-02-23T08:03:39;37.58;;;18.32;;
49109;SDS011;34921;52.320;16.142;2023-02-23T08:06:07;41.60;;;25.10;;
49109;SDS011;34921;52.320;16.142;2023-02-23T08:08:35;43.20;;;26.03;;
49109;SDS011;34921;52.320;16.142;2023-02-23T08:11:03;35.50;;;20.60;;
49109;SDS011;34921;52.320;16.142;2023-02-23T08:13:32;38.20;;;20.60;;
49109;SDS011;34921;52.320;16.142;2023-02-23T08:16:00;39.73;;;18.90;;
49109;SDS011;34921;52.320;16.142;2023-02-23T08:18:28;28.47;;;16.97;;
49109;SDS011;34921;52.320;16.142;2023-02-23T08:21:00;33.02;;;17.75;;
49109;SDS011;34921;52.320;16.142;2023-02-23T08:23:30;35.58;;;19.52;;
49109;SDS011;34921;52.320;16.142;2023-02-23T08:25:59;39.30;;;20.40;;
49109;SDS011;34921;52.320;16.142;2023-02-23T08:28:28;40.00;;;21.97;;
49109;SDS011;34921;52.320;16.142;2023-02-23T08:30:57;33.73;;;18.60;;
49109;SDS011;34921;52.320;16.142;2023-02-23T08:33:26;35.00;;;19.45;;
49109;SDS011;34921;52.320;16.142;2023-02-23T08:35:54;34.33;;;20.10;;
49109;SDS011;34921;52.320;16.142;2023-02-23T08:38:25;36.88;;;19.95;;
49109;SDS011;34921;52.320;16.142;2023-02-23T08:40:53;36.28;;;18.67;;
49109;SDS011;34921;52.320;16.142;2023-02-23T08:43:21;36.65;;;19.73;;
49109;SDS011;34921;52.320;16.142;2023-02-23T08:45:49;37.33;;;19.03;;
49109;SDS011;34921;52.320;16.142;2023-02-23T08:48:17;38.95;;;19.98;;
49109;SDS011;34921;52.320;16.142;2023-02-23T08:50:46;40.17;;;20.43;;
49109;SDS011;34921;52.320;16.142;2023-02-23T08:55:44;42.43;;;20.53;;
49109;SDS011;34921;52.320;16.142;2023-02-23T08:58:12;34.60;;;19.10;;
49109;SDS011;34921;52.320;16.142;2023-02-23T09:00:40;43.30;;;22.93;;
49109;SDS011;34921;52.320;16.142;2023-02-23T09:03:07;46.80;;;22.65;;
49109;SDS011;34921;52.320;16.142;2023-02-23T09:05:36;38.63;;;21.07;;
49109;SDS011;34921;52.320;16.142;2023-02-23T09:08:05;36.48;;;20.23;;
49109;SDS011;34921;52.320;16.142;2023-02-23T09:10:33;44.53;;;20.25;;
49109;SDS011;34921;52.320;16.142;2023-02-23T09:13:02;36.58;;;20.35;;
49109;SDS011;34921;52.320;16.142;2023-02-23T09:15:30;35.60;;;19.60;;
49109;SDS011;34921;52.320;16.142;2023-02-23T09:17:59;39.40;;;19.95;;
49109;SDS011;34921;52.320;16.142;2023-02-23T09:20:28;37.10;;;20.72;;
49109;SDS011;34921;52.320;16.142;2023-02-23T09:22:56;38.28;;;20.25;;
49109;SDS011;34921;52.320;16.142;2023-02-23T09:25:25;42.23;;;21.53;;
49109;SDS011;34921;52.320;16.142;2023-02-23T09:27:54;36.75;;;20.48;;
49109;SDS011;34921;52.320;16.142;2023-02-23T09:30:26;39.92;;;21.45;;
49109;SDS011;34921;52.320;16.142;2023-02-23T09:32:54;36.48;;;19.15;;
49109;SDS011;34921;52.320;16.142;2023-02-23T09:35:23;32.67;;;20.43;;
49109;SDS011;34921;52.320;16.142;2023-02-23T09:37:52;37.55;;;19.73;;
49109;SDS011;34921;52.320;16.142;2023-02-23T09:40:23;36.87;;;18.87;;
49109;SDS011;34921;52.320;16.142;2023-02-23T09:43:13;36.20;;;18.92;;
49109;SDS011;34921;52.320;16.142;2023-02-23T09:45:48;35.38;;;20.40;;
49109;SDS011;34921;52.320;16.142;2023-02-23T09:48:26;39.18;;;22.55;;
49109;SDS011;34921;52.320;16.142;2023-02-23T09:50:55;38.20;;;22.00;;
49109;SDS011;34921;52.320;16.142;2023-02-23T09:53:38;38.67;;;21.33;;
49109;SDS011;34921;52.320;16.142;2023-02-23T09:56:12;39.07;;;20.63;;
49109;SDS011;34921;52.320;16.142;2023-02-23T09:58:45;32.05;;;19.75;;
49109;SDS011;34921;52.320;16.142;2023-02-23T10:03:48;31.80;;;18.92;;
49109;SDS011;34921;52.320;16.142;2023-02-23T10:06:22;42.05;;;22.13;;
49109;SDS011;34921;52.320;16.142;2023-02-23T10:08:54;36.70;;;21.80;;
49109;SDS011;34921;52.320;16.142;2023-02-23T10:11:39;41.40;;;21.65;;
49109;SDS011;34921;52.320;16.142;2023-02-23T10:22:42;39.03;;;20.75;;
49109;SDS011;34921;52.320;16.142;2023-02-23T10:25:15;39.80;;;21.40;;
49109;SDS011;34921;52.320;16.142;2023-02-23T10:27:47;38.95;;;23.70;;
49109;SDS011;34921;52.320;16.142;2023-02-23T10:30:17;52.60;;;26.37;;
49109;SDS011;34921;52.320;16.142;2023-02-23T10:35:30;69.30;;;31.73;;
49109;SDS011;34921;52.320;16.142;2023-02-23T10:37:59;62.20;;;30.20;;
49109;SDS011;34921;52.320;16.142;2023-02-23T10:40:29;74.12;;;34.58;;
49109;SDS011;34921;52.320;16.142;2023-02-23T10:43:00;44.55;;;24.70;;
49109;SDS011;34921;52.320;16.142;2023-02-23T10:45:29;70.65;;;32.60;;
49109;SDS011;34921;52.320;16.142;2023-02-23T10:48:04;77.25;;;38.88;;
49109;SDS011;34921;52.320;16.142;2023-02-23T10:50:35;42.43;;;23.42;;
49109;SDS011;34921;52.320;16.142;2023-02-23T10:56:04;38.42;;;22.70;;
49109;SDS011;34921;52.320;16.142;2023-02-23T10:58:47;45.90;;;26.20;;
49109;SDS011;34921;52.320;16.142;2023-02-23T11:04:16;39.85;;;23.83;;
49109;SDS011;34921;52.320;16.142;2023-02-23T11:07:07;38.00;;;22.10;;
49109;SDS011;34921;52.320;16.142;2023-02-23T11:09:43;36.25;;;21.62;;
49109;SDS011;34921;52.320;16.142;2023-02-23T11:14:53;41.28;;;23.15;;
49109;SDS011;34921;52.320;16.142;2023-02-23T11:17:27;41.35;;;23.92;;
49109;SDS011;34921;52.320;16.142;2023-02-23T11:20:17;39.92;;;21.82;;
49109;SDS011;34921;52.320;16.142;2023-02-23T11:22:45;52.45;;;27.65;;
49109;SDS011;34921;52.320;16.142;2023-02-23T11:25:15;47.17;;;23.85;;
49109;SDS011;34921;52.320;16.142;2023-02-23T11:27:48;38.50;;;21.87;;
49109;SDS011;34921;52.320;16.142;2023-02-23T11:30:20;38.63;;;23.62;;
49109;SDS011;34921;52.320;16.142;2023-02-23T11:32:52;45.57;;;25.57;;
49109;SDS011;34921;52.320;16.142;2023-02-23T11:35:26;38.10;;;22.65;;
49109;SDS011;34921;52.320;16.142;2023-02-23T11:37:56;41.58;;;22.93;;
49109;SDS011;34921;52.320;16.142;2023-02-23T11:40:31;45.67;;;25.55;;
49109;SDS011;34921;52.320;16.142;2023-02-23T11:45:46;46.30;;;26.47;;
49109;SDS011;34921;52.320;16.142;2023-02-23T11:51:00;40.58;;;24.15;;
49109;SDS011;34921;52.320;16.142;2023-02-23T11:53:38;42.10;;;23.77;;
49109;SDS011;34921;52.320;16.142;2023-02-23T11:56:07;77.08;;;38.13;;
49109;SDS011;34921;52.320;16.142;2023-02-23T11:58:38;54.07;;;29.40;;
49109;SDS011;34921;52.320;16.142;2023-02-23T12:01:16;48.93;;;27.33;;
49109;SDS011;34921;52.320;16.142;2023-02-23T12:03:54;46.70;;;27.07;;
49109;SDS011;34921;52.320;16.142;2023-02-23T12:06:37;43.48;;;24.07;;
49109;SDS011;34921;52.320;16.142;2023-02-23T12:11:48;39.20;;;22.48;;
49109;SDS011;34921;52.320;16.142;2023-02-23T12:19:57;36.80;;;22.30;;
49109;SDS011;34921;52.320;16.142;2023-02-23T12:22:28;43.08;;;25.70;;
49109;SDS011;34921;52.320;16.142;2023-02-23T12:25:02;37.67;;;23.27;;
49109;SDS011;34921;52.320;16.142;2023-02-23T12:30:54;43.65;;;25.62;;
49109;SDS011;34921;52.320;16.142;2023-02-23T12:33:27;44.77;;;27.05;;
49109;SDS011;34921;52.320;16.142;2023-02-23T12:38:59;37.78;;;24.00;;
49109;SDS011;34921;52.320;16.142;2023-02-23T12:41:34;35.78;;;22.70;;
49109;SDS011;34921;52.320;16.142;2023-02-23T12:44:11;47.00;;;27.15;;
49109;SDS011;34921;52.320;16.142;2023-02-23T12:52:55;47.13;;;26.73;;
49109;SDS011;34921;52.320;16.142;2023-02-23T12:57:57;50.88;;;27.20;;
49109;SDS011;34921;52.320;16.142;2023-02-23T13:01:02;66.72;;;34.48;;
49109;SDS011;34921;52.320;16.142;2023-02-23T13:03:44;54.25;;;28.47;;
49109;SDS011;34921;52.320;16.142;2023-02-23T13:12:08;60.93;;;32.10;;
49109;SDS011;34921;52.320;16.142;2023-02-23T13:17:36;49.08;;;26.12;;
49109;SDS011;34921;52.320;16.142;2023-02-23T13:20:22;42.93;;;26.57;;
49109;SDS011;34921;52.320;16.142;2023-02-23T13:25:38;46.95;;;27.65;;
49109;SDS011;34921;52.320;16.142;2023-02-23T13:28:48;50.90;;;30.27;;
49109;SDS011;34921;52.320;16.142;2023-02-23T13:31:24;50.95;;;28.27;;
49109;SDS011;34921;52.320;16.142;2023-02-23T13:33:55;61.33;;;31.55;;
49109;SDS011;34921;52.320;16.142;2023-02-23T13:36:25;55.60;;;30.35;;
49109;SDS011;34921;52.320;16.142;2023-02-23T13:39:26;59.60;;;32.65;;
49109;SDS011;34921;52.320;16.142;2023-02-23T13:44:36;60.47;;;30.47;;
49109;SDS011;34921;52.320;16.142;2023-02-23T13:47:20;45.55;;;28.85;;
49109;SDS011;34921;52.320;16.142;2023-02-23T13:49:56;49.70;;;28.32;;
49109;SDS011;34921;52.320;16.142;2023-02-23T13:57:55;61.48;;;32.93;;
49109;SDS011;34921;52.320;16.142;2023-02-23T14:00:31;72.75;;;35.52;;
49109;SDS011;34921;52.320;16.142;2023-02-23T14:03:01;56.50;;;28.38;;
49109;SDS011;34921;52.320;16.142;2023-02-23T14:05:40;47.05;;;25.90;;
49109;SDS011;34921;52.320;16.142;2023-02-23T14:08:18;42.75;;;24.90;;
49109;SDS011;34921;52.320;16.142;2023-02-23T14:11:09;56.67;;;29.17;;
49109;SDS011;34921;52.320;16.142;2023-02-23T14:13:40;41.95;;;25.05;;
49109;SDS011;34921;52.320;16.142;2023-02-23T14:16:25;48.80;;;28.83;;
49109;SDS011;34921;52.320;16.142;2023-02-23T14:21:32;37.40;;;22.75;;
49109;SDS011;34921;52.320;16.142;2023-02-23T14:26:44;47.17;;;28.02;;
49109;SDS011;34921;52.320;16.142;2023-02-23T14:29:38;63.50;;;34.35;;
49109;SDS011;34921;52.320;16.142;2023-02-23T14:34:52;72.20;;;36.83;;
49109;SDS011;34921;52.320;16.142;2023-02-23T14:37:30;97.60;;;46.15;;
49109;SDS011;34921;52.320;16.142;2023-02-23T14:40:13;98.30;;;47.83;;
49109;SDS011;34921;52.320;16.142;2023-02-23T14:42:50;118.23;;;54.93;;
49109;SDS011;34921;52.320;16.142;2023-02-23T14:45:35;71.37;;;36.63;;
49109;SDS011;34921;52.320;16.142;2023-02-23T14:48:06;54.08;;;31.00;;
49109;SDS011;34921;52.320;16.142;2023-02-23T14:50:39;51.35;;;30.43;;
49109;SDS011;34921;52.320;16.142;2023-02-23T14:53:18;47.00;;;26.93;;
49109;SDS011;34921;52.320;16.142;2023-02-23T14:55:48;43.98;;;25.45;;
49109;SDS011;34921;52.320;16.142;2023-02-23T14:58:20;46.92;;;27.82;;
49109;SDS011;34921;52.320;16.142;2023-02-23T15:00:49;53.60;;;31.07;;
49109;SDS011;34921;52.320;16.142;2023-02-23T15:03:18;55.15;;;32.17;;
49109;SDS011;34921;52.320;16.142;2023-02-23T15:05:49;57.15;;;34.43;;
49109;SDS011;34921;52.320;16.142;2023-02-23T15:08:23;48.70;;;28.02;;
49109;SDS011;34921;52.320;16.142;2023-02-23T15:13:35;54.08;;;27.93;;
49109;SDS011;34921;52.320;16.142;2023-02-23T15:16:26;47.17;;;27.17;;
49109;SDS011;34921;52.320;16.142;2023-02-23T15:18:56;44.87;;;27.97;;
49109;SDS011;34921;52.320;16.142;2023-02-23T15:21:25;48.60;;;29.72;;
49109;SDS011;34921;52.320;16.142;2023-02-23T15:23:58;48.87;;;27.73;;
49109;SDS011;34921;52.320;16.142;2023-02-23T15:26:35;107.15;;;57.38;;
49109;SDS011;34921;52.320;16.142;2023-02-23T15:31:36;264.08;;;122.10;;
49109;SDS011;34921;52.320;16.142;2023-02-23T15:34:09;111.03;;;63.95;;
49109;SDS011;34921;52.320;16.142;2023-02-23T15:36:37;67.15;;;35.43;;
49109;SDS011;34921;52.320;16.142;2023-02-23T15:39:10;86.92;;;46.28;;
49109;SDS011;34921;52.320;16.142;2023-02-23T15:41:42;74.85;;;39.23;;
49109;SDS011;34921;52.320;16.142;2023-02-23T15:49:26;231.10;;;136.07;;
49109;SDS011;34921;52.320;16.142;2023-02-23T15:52:01;162.22;;;98.67;;
49109;SDS011;34921;52.320;16.142;2023-02-23T15:57:05;73.05;;;41.23;;
49109;SDS011;34921;52.320;16.142;2023-02-23T15:59:35;58.10;;;32.15;;
49109;SDS011;34921;52.320;16.142;2023-02-23T16:02:15;61.80;;;34.10;;
49109;SDS011;34921;52.320;16.142;2023-02-23T16:04:46;60.92;;;33.75;;
49109;SDS011;34921;52.320;16.142;2023-02-23T16:10:02;64.10;;;36.75;;
49109;SDS011;34921;52.320;16.142;2023-02-23T16:12:36;62.95;;;33.15;;
49109;SDS011;34921;52.320;16.142;2023-02-23T16:15:23;66.17;;;36.70;;
49109;SDS011;34921;52.320;16.142;2023-02-23T16:17:54;66.85;;;37.40;;
49109;SDS011;34921;52.320;16.142;2023-02-23T16:20:34;68.97;;;37.53;;
49109;SDS011;34921;52.320;16.142;2023-02-23T16:23:05;58.92;;;32.73;;
49109;SDS011;34921;52.320;16.142;2023-02-23T16:25:35;70.30;;;38.75;;
49109;SDS011;34921;52.320;16.142;2023-02-23T16:28:07;76.20;;;44.30;;
49109;SDS011;34921;52.320;16.142;2023-02-23T16:30:41;82.05;;;46.42;;
49109;SDS011;34921;52.320;16.142;2023-02-23T16:35:46;80.38;;;46.75;;
49109;SDS011;34921;52.320;16.142;2023-02-23T16:38:23;89.50;;;51.40;;
49109;SDS011;34921;52.320;16.142;2023-02-23T16:40:53;86.02;;;50.50;;
49109;SDS011;34921;52.320;16.142;2023-02-23T16:43:21;93.47;;;52.35;;
49109;SDS011;34921;52.320;16.142;2023-02-23T16:45:50;112.10;;;58.63;;
49109;SDS011;34921;52.320;16.142;2023-02-23T16:48:18;89.83;;;48.87;;
49109;SDS011;34921;52.320;16.142;2023-02-23T16:50:46;103.12;;;54.15;;
49109;SDS011;34921;52.320;16.142;2023-02-23T16:53:15;106.00;;;57.80;;
49109;SDS011;34921;52.320;16.142;2023-02-23T16:55:53;141.62;;;71.97;;
49109;SDS011;34921;52.320;16.142;2023-02-23T16:58:23;170.20;;;84.63;;
49109;SDS011;34921;52.320;16.142;2023-02-23T17:00:52;204.30;;;94.30;;
49109;SDS011;34921;52.320;16.142;2023-02-23T17:03:23;239.75;;;104.95;;
49109;SDS011;34921;52.320;16.142;2023-02-23T17:05:52;212.20;;;100.30;;
49109;SDS011;34921;52.320;16.142;2023-02-23T17:08:21;227.93;;;110.97;;
49109;SDS011;34921;52.320;16.142;2023-02-23T17:10:50;183.12;;;91.37;;
49109;SDS011;34921;52.320;16.142;2023-02-23T17:13:20;202.70;;;101.00;;
49109;SDS011;34921;52.320;16.142;2023-02-23T17:15:50;204.32;;;108.42;;
49109;SDS011;34921;52.320;16.142;2023-02-23T17:18:21;166.47;;;92.80;;
49109;SDS011;34921;52.320;16.142;2023-02-23T17:20:51;130.93;;;74.97;;